Latest Weather Observations for Daly Waters

IDD60801

Issued at 3:31 pm CST Sunday 22 October 2017 (issued every 30 minutes, with the page automatically refreshed every 10 minutes)

About weather observations | Map of weather stations | Latest weather observations for NT | Other Formats
Station Details ID: 014626 Name: DALY WATERS AIRSTRIP Lat: -16.26 Lon: 133.38 Height: 209.84 m
Data from the previous 72 hours. | See also: Recent months at Daly Waters
Date/Time
CST
Temp
°C
App
Temp
°C
Dew
Point
°C
Rel
Hum
%
Delta-T
°C
Wind Press
QNH
hPa
Press
MSL
hPa
Rain since
9am
mm
Dir  Spd
km/h
Gust
km/h
Spd
kts
Gust
kts
22/03:30pm 36.3 33.2 3.5 13 17.4 SSW 9 17 5 9 1009.4 1007.9 0.0
22/03:00pm 36.1 33.3 3.3 13 17.4 SE 7 19 4 10 1009.8 1008.3 0.0
22/02:30pm 36.0 33.4 3.3 13 17.3 WNW 6 11 3 6 1010.1 1008.6 0.0
22/02:00pm 35.8 32.8 4.2 14 16.9 SSW 9 24 5 13 1010.6 1009.1 0.0
22/01:30pm 36.2 33.7 4.5 14 17.1 NE 7 15 4 8 1011.0 1009.5 0.0
22/01:00pm 35.2 32.1 3.7 14 16.7 ESE 9 17 5 9 1011.9 1010.5 0.0
22/12:30pm 34.0 31.3 3.7 15 15.9 E 7 15 4 8 1012.7 1011.3 0.0
22/12:00pm 34.5 31.7 3.1 14 16.4 SE 7 15 4 8 1013.3 1011.9 0.0
22/11:30am 33.8 30.7 3.6 15 15.8 SSE 9 20 5 11 1014.1 1012.6 0.0
22/11:00am 33.1 29.4 2.1 14 15.8 ESE 11 22 6 12 1014.7 1013.2 0.0
22/10:30am 33.1 28.6 2.1 14 15.8 ESE 15 30 8 16 1015.0 1013.5 0.0
22/10:00am 32.9 28.9 2.9 15 15.5 ESE 13 22 7 12 1015.4 1013.9 0.0
22/09:30am 31.6 26.4 2.7 16 14.7 ESE 19 32 10 17 1015.6 1014.1 0.0
22/09:00am 30.3 24.4 1.7 16 14.2 SE 22 35 12 19 1015.7 1014.2 0.0
22/08:30am 29.5 24.2 1.9 17 13.7 SE 19 35 10 19 1015.6 1014.1 0.0
22/08:00am 28.8 24.3 4.3 21 12.6 ESE 17 32 9 17 1015.3 1013.8 0.0
22/07:30am 27.3 23.5 5.6 25 11.3 SE 15 28 8 15 1014.9 1013.4 0.0
22/07:00am 25.7 22.4 6.3 29 10.2 SE 13 22 7 12 1014.5 1013.0 0.0
22/06:30am 24.0 21.9 6.7 33 9.0 ESE 7 11 4 6 1014.2 1012.7 0.0
22/06:00am 23.9 21.9 7.1 34 8.8 ESE 7 13 4 7 1013.9 1012.4 0.0
22/05:30am 23.9 22.0 7.5 35 8.7 ESE 7 17 4 9 1013.2 1011.8 0.0
22/05:00am 24.3 22.5 7.9 35 8.8 SE 7 15 4 8 1012.9 1011.5 0.0
22/04:30am 24.7 22.6 8.2 35 8.9 ESE 9 13 5 7 1012.7 1011.3 0.0
22/04:00am 24.3 22.6 8.3 36 8.6 ESE 7 15 4 8 1012.6 1011.2 0.0
22/03:30am 25.2 23.5 8.2 34 9.2 E 7 11 4 6 1012.6 1011.2 0.0
22/03:00am 26.1 24.1 8.6 33 9.6 ESE 9 19 5 10 1012.6 1011.2 0.0
22/02:30am 26.9 24.2 8.8 32 10.0 ESE 13 20 7 11 1012.5 1011.1 0.0
22/02:00am 26.2 24.4 9.5 35 9.3 ESE 9 17 5 9 1012.6 1011.2 0.0
22/01:30am 24.9 23.9 10.4 40 8.1 SE 6 9 3 5 1012.8 1011.4 0.0
22/01:00am 25.3 24.3 10.4 39 8.4 SE 6 9 3 5 1013.0 1011.6 0.0
22/12:30am 24.6 23.8 11.2 43 7.6 SE 6 13 3 7 1013.1 1011.7 0.0
22/12:00am 23.2 22.9 11.3 47 6.7 SE 4 6 2 3 1013.2 1011.8 0.0
 
Date/Time
CST
Temp
°C
App
Temp
°C
Dew
Point
°C
Rel
Hum
%
Delta-T
°C
Wind Press
QNH
hPa
Press
MSL
hPa
Rain since
9am
mm
Dir  Spd
km/h
Gust
km/h
Spd
kts
Gust
kts
21/11:30pm 24.0 23.6 11.0 44 7.3 SE 4 6 2 3 1013.2 1011.8 0.0
21/11:00pm 25.2 24.9 11.4 42 7.9 SE 4 6 2 3 1013.2 1011.8 0.0
21/10:30pm 26.5 25.8 11.4 39 8.7 SE 6 7 3 4 1013.2 1011.8 0.0
21/10:00pm 27.2 26.7 10.8 36 9.4 SE 4 6 2 3 1013.2 1011.8 0.0
21/09:30pm 29.1 28.5 11.6 33 10.2 SE 6 11 3 6 1012.8 1011.4 0.0
21/09:00pm 29.2 28.9 12.6 36 9.8 SSE 6 7 3 4 1012.4 1011.0 0.0
21/08:30pm 30.2 30.0 13.0 34 10.3 SE 6 11 3 6 1011.8 1010.4 0.0
21/08:00pm 30.8 30.6 13.1 34 10.6 SE 6 9 3 5 1011.6 1010.2 0.0
21/07:30pm 30.9 30.9 13.7 35 10.4 SE 6 7 3 4 1011.4 1009.9 0.0
21/07:00pm 32.0 32.0 13.7 33 11.1 SE 6 11 3 6 1011.0 1009.5 0.0
21/06:30pm 33.3 33.2 13.9 31 11.9 SE 7 13 4 7 1010.7 1009.2 0.0
21/06:00pm 34.3 33.2 14.2 29 12.5 SE 13 20 7 11 1010.5 1009.0 0.0
21/05:30pm 35.1 33.3 14.4 29 12.9 SE 17 26 9 14 1010.3 1008.8 0.0
21/05:00pm 35.8 36.1 15.0 29 13.1 SE 7 19 4 10 1010.2 1008.7 0.0
21/04:30pm 36.3 36.7 15.4 28 13.3 SE 7 19 4 10 1010.2 1008.7 0.0
21/04:00pm 35.3 35.6 15.1 30 12.7 SSE 7 17 4 9 1010.5 1009.0 0.0
21/03:30pm 35.6 35.2 15.3 29 12.8 SE 11 24 6 13 1010.9 1009.4 0.0
21/03:00pm 34.0 33.9 15.0 32 11.9 SE 9 20 5 11 1011.3 1009.8 0.0
21/02:30pm 34.7 34.5 15.6 32 12.1 ESE 11 20 6 11 1011.7 1010.3 0.0
21/02:00pm 34.9 34.5 16.2 32 11.9 ESE 13 20 7 11 1012.1 1010.7 0.0
21/01:30pm 34.3 33.7 15.7 32 11.8 SE 13 22 7 12 1012.7 1011.3 0.0
21/01:00pm 34.1 33.8 16.5 35 11.2 SE 13 24 7 13 1013.1 1011.7 0.0
21/12:30pm 35.0 35.4 17.2 34 11.5 ESE 11 22 6 12 1013.9 1012.4 0.0
21/12:00pm 34.8 34.8 17.1 35 11.4 E 13 26 7 14 1014.2 1012.7 0.0
21/11:30am 33.0 32.8 16.8 38 10.4 SE 13 26 7 14 1014.7 1013.2 0.0
21/11:00am 34.6 34.5 17.8 37 10.9 E 15 30 8 16 1015.1 1013.6 0.0
21/10:30am 32.5 32.3 17.5 40 9.7 SE 15 22 8 12 1015.4 1013.9 0.0
21/10:00am 32.4 32.4 18.9 44 8.9 ESE 17 28 9 15 1015.8 1014.4 0.0
21/09:30am 30.8 31.0 18.5 47 8.0 SE 15 30 8 16 1015.9 1014.5 0.0
21/09:00am 29.4 29.7 18.8 53 6.9 SE 15 24 8 13 1016.2 1014.8 0.0
21/08:30am 28.9 29.6 18.9 54 6.5 SE 13 24 7 13 1016.1 1014.7 0.0
21/08:00am 27.8 29.5 19.3 60 5.5 SSE 9 17 5 9 1015.7 1014.2 0.0
21/07:30am 26.0 28.6 19.2 66 4.4 SSE 4 9 2 5 1015.4 1013.9 0.0
21/07:00am 24.2 27.3 18.6 71 3.6 CALM 0 0 0 0 1015.3 1013.8 0.0
21/06:30am 22.2 24.6 17.1 73 3.2 CALM 0 0 0 0 1015.1 1013.6 0.0
21/06:00am 21.9 24.2 16.8 73 3.1 CALM 0 0 0 0 1014.9 1013.4 0.0
21/05:30am 22.4 24.7 16.7 70 3.5 CALM 0 0 0 0 1014.6 1013.1 0.0
21/05:00am 22.8 25.1 16.8 69 3.7 CALM 0 0 0 0 1014.3 1012.8 0.0
21/04:30am 24.0 26.5 17.3 66 4.2 CALM 0 0 0 0 1014.0 1012.5 0.0
21/04:00am 24.5 26.3 17.5 65 4.4 SE 4 6 2 3 1013.9 1012.4 0.0
21/03:30am 24.9 26.4 17.6 64 4.6 SE 6 9 3 5 1013.8 1012.3 0.0
21/03:00am 25.1 27.2 18.1 65 4.4 SE 4 9 2 5 1013.3 1011.9 0.0
21/02:30am 23.3 24.5 16.8 67 4.0 S 6 9 3 5 1013.3 1011.9 0.0
21/02:00am 23.8 25.8 16.1 62 4.7 CALM 0 0 0 0 1013.1 1011.7 0.0
21/01:30am 25.0 26.8 16.4 59 5.3 ENE 2 6 1 3 1013.2 1011.8 0.0
21/01:00am 26.1 27.2 16.6 55 5.9 ENE 6 7 3 4 1013.2 1011.8 0.0
21/12:30am 26.3 27.2 16.0 53 6.4 ENE 6 11 3 6 1013.4 1012.0 0.0
21/12:00am 26.7 27.2 15.1 49 7.1 ENE 6 7 3 4 1013.7 1012.2 0.0
 
Date/Time
CST
Temp
°C
App
Temp
°C
Dew
Point
°C
Rel
Hum
%
Delta-T
°C
Wind Press
QNH
hPa
Press
MSL
hPa
Rain since
9am
mm
Dir  Spd
km/h
Gust
km/h
Spd
kts
Gust
kts
20/11:30pm 27.5 27.6 14.5 45 7.9 ENE 7 9 4 5 1014.1 1012.6 0.0
20/11:00pm 28.3 27.8 14.9 44 8.2 ENE 11 15 6 8 1014.2 1012.7 0.0
20/10:30pm 26.9 27.1 14.6 46 7.4 ESE 7 19 4 10 1014.1 1012.6 0.0
20/10:00pm 25.8 26.4 14.3 49 6.9 SE 4 6 2 3 1013.9 1012.4 0.0
20/09:30pm 26.1 26.6 13.9 47 7.3 ESE 4 4 2 2 1013.4 1012.0 0.0
20/09:00pm 26.9 27.4 14.0 45 7.7 ESE 4 6 2 3 1013.1 1011.7 0.0
20/08:30pm 27.6 27.9 13.5 41 8.4 ESE 4 6 2 3 1012.8 1011.4 0.0
20/08:00pm 29.9 30.3 13.6 36 9.8 ESE 4 6 2 3 1012.5 1011.1 0.0
20/07:30pm 30.8 31.2 13.6 35 10.4 SSE 4 4 2 2 1012.2 1010.8 0.0
20/07:00pm 32.3 32.2 14.0 33 11.2 SE 7 11 4 6 1011.7 1010.3 0.0
20/06:30pm 33.2 32.7 13.8 31 11.9 SE 9 15 5 8 1011.3 1009.8 0.0
20/06:00pm 33.8 31.9 14.3 31 12.1 SE 17 28 9 15 1011.1 1009.6 0.0
20/05:30pm 34.7 34.3 14.0 28 12.8 SE 9 22 5 12 1010.9 1009.4 0.0
20/05:00pm 35.5 35.1 14.2 28 13.2 SE 9 19 5 10 1010.6 1009.1 0.0
20/04:30pm 35.7 35.6 13.8 27 13.6 SSE 7 13 4 7 1010.6 1009.1 0.0
20/04:00pm 36.0 36.0 14.1 27 13.6 SSE 7 11 4 6 1010.6 1009.1 0.0
20/03:30pm 35.6 35.1 13.7 27 13.5 SE 9 20 5 11 1011.0 1009.5 0.0
20/03:00pm 35.4 35.7 13.5 26 13.5 SE 4 13 2 7 1011.2 1009.7 0.0
20/02:30pm 35.8 35.5 13.3 26 13.8 ESE 7 15 4 8 1011.6 1010.2 0.0
20/02:00pm 35.3 35.8 15.1 30 12.7 E 6 13 3 7 1012.2 1010.8 0.0
20/01:30pm 33.3 32.2 15.3 34 11.3 NE 15 28 8 15 1012.6 1011.2 0.0
20/01:00pm 34.3 33.8 13.7 29 12.7 NE 9 17 5 9 1012.6 1011.2 0.0
20/12:30pm 35.4 35.2 14.6 28 13.0 NNE 9 20 5 11 1012.9 1011.5 0.0
20/12:00pm 35.6 35.6 15.3 29 12.8 NNW 9 15 5 8 1013.3 1011.9 0.0
20/11:30am 35.6 36.2 15.9 31 12.5 NNW 7 17 4 9 1013.9 1012.4 0.0
20/11:00am 34.4 34.6 15.8 33 11.8 N 9 17 5 9 1014.3 1012.8 0.0
20/10:30am 33.9 33.6 15.4 33 11.6 NNW 11 20 6 11 1014.5 1013.0 0.0
20/10:00am 32.3 31.8 14.9 35 10.8 N 11 22 6 12 1014.7 1013.2 0.0
20/09:30am 32.5 33.4 17.5 40 9.7 N 9 17 5 9 1014.9 1013.4 0.0
20/09:00am 31.3 32.2 17.6 44 8.8 NNE 9 17 5 9 1015.0 1013.5 0.0
20/08:30am 30.9 32.0 18.9 48 7.9 NE 11 15 6 8 1014.8 1013.3 0.0
20/08:00am 28.3 29.8 19.0 57 6.0 NNE 9 13 5 7 1014.4 1012.9 0.0
20/07:30am 27.3 29.0 18.6 59 5.6 NE 7 11 4 6 1014.1 1012.6 0.0
20/07:00am 26.3 27.6 17.1 57 5.8 NE 6 9 3 5 1013.4 1012.0 0.0
20/06:30am 25.1 26.2 15.7 56 5.8 E 4 6 2 3 1013.1 1011.7 0.0
20/06:00am 24.9 26.1 15.0 54 6.0 E 2 4 1 2 1012.7 1011.3 0.0
20/05:30am 25.0 25.8 14.8 53 6.2 NE 4 6 2 3 1012.2 1010.8 0.0
20/05:00am 24.8 26.2 14.3 52 6.3 CALM 0 2 0 1 1011.9 1010.5 0.0
20/04:30am 24.1 24.6 13.9 53 6.0 ENE 4 6 2 3 1011.7 1010.3 0.0
20/04:00am 23.8 24.7 13.9 54 5.9 NE 2 4 1 2 1011.5 1010.0 0.0
20/03:30am 23.4 24.5 13.6 54 5.8 CALM 0 0 0 0 1011.2 1009.7 0.0
20/03:00am 23.4 24.2 13.6 54 5.8 NE 2 6 1 3 1011.1 1009.6 0.0
20/02:30am 23.1 24.0 13.0 53 5.9 CALM 0 0 0 0 1010.9 1009.4 0.0
20/02:00am 23.5 24.3 12.5 50 6.3 CALM 0 0 0 0 1011.0 1009.5 0.0
20/01:30am 24.6 25.4 12.5 46 7.0 CALM 0 0 0 0 1011.2 1009.7 0.0
20/01:00am 25.9 26.0 12.7 44 7.7 NE 4 6 2 3 1011.5 1010.0 0.0
20/12:30am 26.1 25.6 12.2 42 8.1 ENE 6 6 3 3 1011.6 1010.2 0.0
20/12:00am 27.6 27.2 12.4 39 8.9 ENE 6 9 3 5 1011.8 1010.4 0.0
 
Date/Time
CST
Temp
°C
App
Temp
°C
Dew
Point
°C
Rel
Hum
%
Delta-T
°C
Wind Press
QNH
hPa
Press
MSL
hPa
Rain since
9am
mm
Dir  Spd
km/h
Gust
km/h
Spd
kts
Gust
kts
19/11:30pm 28.4 27.8 12.3 37 9.5 ENE 7 11 4 6 1011.9 1010.5 0.0
19/11:00pm 28.9 27.8 11.9 35 9.9 ENE 9 13 5 7 1012.0 1010.6 0.0
19/10:30pm 29.5 28.6 11.5 33 10.5 ENE 7 13 4 7 1011.9 1010.5 0.0
19/10:00pm 30.0 27.6 11.5 32 10.8 ENE 15 20 8 11 1011.5 1010.0 0.0
19/09:30pm 25.2 25.2 11.0 41 8.1 E 2 4 1 2 1010.8 1009.3 0.0
19/09:00pm 26.1 26.2 10.3 37 8.9 CALM 0 0 0 0 1010.3 1008.8 0.0
19/08:30pm 26.3 26.4 10.0 36 9.1 CALM 0 0 0 0 1009.9 1008.4 0.0
19/08:00pm 27.5 27.5 9.8 33 9.9 CALM 0 0 0 0 1009.3 1007.8 0.0
19/07:30pm 29.1 29.1 9.8 30 10.9 CALM 0 0 0 0 1009.0 1007.5 0.0
19/07:00pm 31.4 30.4 9.0 25 12.7 E 4 6 2 3 1008.5 1007.1 0.0
19/06:30pm 35.1 33.7 9.5 21 14.9 E 7 17 4 9 1008.1 1006.7 0.0
19/06:00pm 36.4 35.6 9.8 20 15.6 ESE 4 6 2 3 1007.6 1006.2 0.0
19/05:30pm 36.4 34.9 8.3 18 16.1 SE 6 7 3 4 1007.3 1005.9 0.0
19/05:00pm 37.7 35.7 8.5 17 16.8 ENE 9 13 5 7 1007.0 1005.5 0.0
19/04:30pm 40.0 38.2 9.4 16 18.1 E 9 20 5 11 1006.7 1005.2 0.0
19/04:00pm 39.4 36.9 9.8 17 17.5 NE 13 22 7 12 1006.9 1005.4 0.0

Other Formats:

Comma delimited format used in spreadsheet applications
http://www.bom.gov.au/fwo/IDD60801/IDD60801.94234.axf

JavaScript Object Notation format (JSON) in row-major order
http://www.bom.gov.au/fwo/IDD60801/IDD60801.94234.json